Time;durP1;ratioP1;P1;durP2;ratioP2;P2;SDS_P1;SDS_P2;PMS_P1;PMS_P2;Temp;Humidity;BMP_temperature;BMP_pressure;BME280_temperature;BME280_humidity;BME280_pressure;Samples;Min_cycle;Max_cycle;Signal;HPM_P1;HPM_P2
2022/08/31 00:07:53;;;;;;;5.28;2.50;;;;;;;;;;8296845;28;20391;-91
2022/08/31 00:11:56;;;;;;;4.68;2.97;;;;;;;;;;8297683;28;20132;-90
2022/08/31 00:16:00;;;;;;;3.60;2.40;;;;;;;;;;8299636;28;20108;-90
2022/08/31 00:20:04;;;;;;;12.63;5.40;;;;;;;;;;8295826;28;20453;-89
2022/08/31 00:24:07;;;;;;;5.72;2.70;;;;;;;;;;8297334;28;20050;-90
2022/08/31 00:32:14;;;;;;;5.28;2.53;;;;;;;;;;8251045;28;20148;-89
2022/08/31 00:36:17;;;;;;;5.03;2.92;;;;;;;;;;8296111;28;20052;-89
2022/08/31 00:40:20;;;;;;;6.28;2.97;;;;;;;;;;8299048;28;20060;-88
2022/08/31 00:44:23;;;;;;;4.03;2.65;;;;;;;;;;8293453;28;20497;-91
2022/08/31 00:48:27;;;;;;;4.95;3.20;;;;;;;;;;8296642;28;20076;-91
2022/08/31 00:52:34;;;;;;;4.43;3.00;;;;;;;;;;8297894;28;20048;-91
2022/08/31 00:56:37;;;;;;;3.03;2.40;;;;;;;;;;8320252;28;20053;-90
2022/08/31 01:00:41;;;;;;;4.30;2.70;;;;;;;;;;8310208;28;20052;-90
2022/08/31 01:04:45;;;;;;;7.18;3.05;;;;;;;;;;8287740;28;20099;-90
2022/08/31 01:08:48;;;;;;;7.45;3.08;;;;;;;;;;8297843;28;20046;-90
2022/08/31 01:12:53;;;;;;;7.03;3.33;;;;;;;;;;8298324;28;20046;-89
2022/08/31 01:16:56;;;;;;;5.07;2.70;;;;;;;;;;8299307;28;20041;-89
2022/08/31 01:21:13;;;;;;;5.65;3.03;;;;;;;;;;8297967;28;20062;-90
2022/08/31 01:25:18;;;;;;;5.53;3.00;;;;;;;;;;8298017;28;20045;-89
2022/08/31 01:29:21;;;;;;;5.00;3.40;;;;;;;;;;8297911;28;20056;-89
2022/08/31 01:33:23;;;;;;;4.15;3.05;;;;;;;;;;8294216;28;20052;-92
2022/08/31 01:37:26;;;;;;;9.82;3.80;;;;;;;;;;8298097;28;20057;-91
2022/08/31 01:41:30;;;;;;;6.93;3.65;;;;;;;;;;8297823;28;20045;-89
2022/08/31 01:45:32;;;;;;;5.38;3.58;;;;;;;;;;8297574;28;20050;-89
2022/08/31 01:49:35;;;;;;;6.70;3.25;;;;;;;;;;8297377;28;20045;-88
2022/08/31 01:53:37;;;;;;;6.97;3.45;;;;;;;;;;8297338;28;20053;-90
2022/08/31 01:57:41;;;;;;;6.15;4.00;;;;;;;;;;8297229;28;20050;-89
2022/08/31 02:01:47;;;;;;;6.45;3.42;;;;;;;;;;8296465;28;20050;-88
2022/08/31 02:05:49;;;;;;;6.82;3.70;;;;;;;;;;8297106;28;20052;-88
2022/08/31 02:09:51;;;;;;;9.27;4.00;;;;;;;;;;8281618;28;20053;-88
2022/08/31 02:13:55;;;;;;;5.97;3.55;;;;;;;;;;8294553;28;20057;-89
2022/08/31 02:17:58;;;;;;;5.97;4.20;;;;;;;;;;8294509;28;20412;-89
2022/08/31 02:22:01;;;;;;;6.15;3.78;;;;;;;;;;8295120;28;20054;-89
2022/08/31 02:26:03;;;;;;;5.40;3.38;;;;;;;;;;8295582;28;20045;-89
2022/08/31 02:30:10;;;;;;;6.65;3.72;;;;;;;;;;8296329;28;20076;-91
2022/08/31 02:34:12;;;;;;;7.22;4.03;;;;;;;;;;8296425;28;20049;-89
2022/08/31 02:38:15;;;;;;;5.97;3.47;;;;;;;;;;8296533;28;20052;-89
2022/08/31 02:42:17;;;;;;;5.20;3.70;;;;;;;;;;8296524;28;20050;-89
2022/08/31 02:46:21;;;;;;;5.15;3.38;;;;;;;;;;8296377;28;20057;-89
2022/08/31 02:50:24;;;;;;;6.38;3.63;;;;;;;;;;8296323;28;20042;-89
2022/08/31 02:54:26;;;;;;;7.88;3.63;;;;;;;;;;8296247;28;20052;-89
2022/08/31 02:58:29;;;;;;;6.25;3.53;;;;;;;;;;8296194;28;20560;-89
2022/08/31 03:02:33;;;;;;;5.75;3.53;;;;;;;;;;8296257;28;20046;-89
2022/08/31 03:06:35;;;;;;;6.45;3.33;;;;;;;;;;8296177;28;20125;-89
2022/08/31 03:10:38;;;;;;;5.53;3.67;;;;;;;;;;8296702;28;20496;-89
2022/08/31 03:14:41;;;;;;;5.60;3.50;;;;;;;;;;8301891;28;20499;-89
2022/08/31 03:18:47;;;;;;;7.05;3.92;;;;;;;;;;8301740;28;20065;-88
2022/08/31 03:22:50;;;;;;;5.90;3.60;;;;;;;;;;8301556;28;20060;-89
2022/08/31 03:26:53;;;;;;;5.45;3.50;;;;;;;;;;8301631;28;20489;-89
2022/08/31 03:30:55;;;;;;;7.80;3.83;;;;;;;;;;8301359;28;20054;-89
2022/08/31 03:35:00;;;;;;;4.60;3.53;;;;;;;;;;8301179;28;20050;-89
2022/08/31 03:39:03;;;;;;;6.28;3.75;;;;;;;;;;8301147;28;20053;-89
2022/08/31 03:43:10;;;;;;;4.53;3.40;;;;;;;;;;8300991;28;20506;-89
2022/08/31 03:47:12;;;;;;;6.88;3.38;;;;;;;;;;8300993;28;20054;-89
2022/08/31 03:51:18;;;;;;;6.72;3.47;;;;;;;;;;8300742;28;20493;-89
2022/08/31 03:55:21;;;;;;;6.45;3.20;;;;;;;;;;8300579;28;20144;-89
2022/08/31 03:59:24;;;;;;;4.82;2.83;;;;;;;;;;8300582;28;20096;-89
2022/08/31 04:03:28;;;;;;;6.68;3.38;;;;;;;;;;8300357;28;20068;-88
2022/08/31 04:07:32;;;;;;;6.80;3.33;;;;;;;;;;8300278;28;20099;-89
2022/08/31 04:11:34;;;;;;;4.65;3.22;;;;;;;;;;8300197;28;20049;-89
2022/08/31 04:15:38;;;;;;;4.72;3.05;;;;;;;;;;8299931;28;20050;-89
2022/08/31 04:19:41;;;;;;;6.43;3.53;;;;;;;;;;8299706;28;20058;-89
2022/08/31 04:23:45;;;;;;;4.63;2.80;;;;;;;;;;8299469;28;20053;-89
2022/08/31 04:27:48;;;;;;;8.05;3.00;;;;;;;;;;8299756;28;20569;-90
2022/08/31 04:31:51;;;;;;;9.35;4.70;;;;;;;;;;8300490;28;20389;-90
2022/08/31 04:35:53;;;;;;;7.80;3.80;;;;;;;;;;8299201;28;20499;-90
2022/08/31 04:39:58;;;;;;;5.40;3.83;;;;;;;;;;8299306;28;20057;-89
2022/08/31 04:44:02;;;;;;;6.10;3.35;;;;;;;;;;8299245;28;20404;-89
2022/08/31 04:48:05;;;;;;;4.82;3.45;;;;;;;;;;8297363;28;20054;-89
2022/08/31 04:52:08;;;;;;;6.25;3.33;;;;;;;;;;8296696;28;20488;-89
2022/08/31 04:56:19;;;;;;;5.22;3.10;;;;;;;;;;8296950;28;20172;-88
2022/08/31 05:00:21;;;;;;;5.40;3.05;;;;;;;;;;8298808;28;20050;-88
2022/08/31 05:04:24;;;;;;;7.28;2.78;;;;;;;;;;8298829;28;20050;-90
2022/08/31 05:08:27;;;;;;;5.82;3.35;;;;;;;;;;8298407;28;20045;-89
2022/08/31 05:12:32;;;;;;;5.05;3.15;;;;;;;;;;8298296;28;20382;-89
2022/08/31 05:16:37;;;;;;;5.57;3.10;;;;;;;;;;8298105;28;20052;-88
2022/08/31 05:20:40;;;;;;;3.97;3.15;;;;;;;;;;8297975;28;20505;-89
2022/08/31 05:24:42;;;;;;;5.88;3.03;;;;;;;;;;8297924;28;20045;-89
2022/08/31 05:28:46;;;;;;;7.72;3.80;;;;;;;;;;8297734;28;20050;-89
2022/08/31 05:32:48;;;;;;;20.67;9.20;;;;;;;;;;8297571;28;20489;-89
2022/08/31 05:36:54;;;;;;;9.55;5.55;;;;;;;;;;8297253;28;20045;-89
2022/08/31 05:40:58;;;;;;;14.80;5.75;;;;;;;;;;8297528;28;20049;-89
2022/08/31 05:45:02;;;;;;;11.90;5.60;;;;;;;;;;8297468;28;20088;-89
2022/08/31 05:49:06;;;;;;;9.98;4.00;;;;;;;;;;8297305;28;20042;-89
2022/08/31 05:53:09;;;;;;;12.13;4.47;;;;;;;;;;8297202;28;20049;-90
2022/08/31 05:57:11;;;;;;;5.20;3.33;;;;;;;;;;8297153;28;20045;-90
2022/08/31 06:01:19;;;;;;;6.13;3.10;;;;;;;;;;8279926;28;20050;-90
2022/08/31 06:05:21;;;;;;;4.07;2.70;;;;;;;;;;8297072;28;20042;-90
2022/08/31 06:09:24;;;;;;;6.07;2.90;;;;;;;;;;8297095;28;20481;-89
2022/08/31 06:13:26;;;;;;;4.78;2.55;;;;;;;;;;8296800;28;20141;-89
2022/08/31 06:17:31;;;;;;;6.20;2.95;;;;;;;;;;8296932;28;20480;-89
2022/08/31 06:21:38;;;;;;;5.30;2.60;;;;;;;;;;8296708;28;20161;-89
2022/08/31 06:25:40;;;;;;;5.03;2.40;;;;;;;;;;8296825;28;20135;-90
2022/08/31 06:29:43;;;;;;;1.98;1.70;;;;;;;;;;8296770;28;20093;-90
2022/08/31 06:33:51;;;;;;;3.17;2.03;;;;;;;;;;8296573;28;20497;-89
2022/08/31 06:37:55;;;;;;;3.45;1.80;;;;;;;;;;8296587;28;20129;-89
2022/08/31 06:41:58;;;;;;;3.58;1.67;;;;;;;;;;8296622;28;20688;-90
2022/08/31 06:46:01;;;;;;;4.32;1.80;;;;;;;;;;8297611;28;20054;-90
2022/08/31 06:50:06;;;;;;;3.13;1.80;;;;;;;;;;8302597;28;20050;-90
2022/08/31 06:54:10;;;;;;;2.13;1.55;;;;;;;;;;8302502;28;20382;-90
2022/08/31 06:58:13;;;;;;;6.95;1.77;;;;;;;;;;8302431;28;20057;-90
2022/08/31 07:02:15;;;;;;;3.47;1.55;;;;;;;;;;8302360;28;20128;-90
2022/08/31 07:06:23;;;;;;;4.47;1.35;;;;;;;;;;8302238;28;20563;-90
2022/08/31 07:10:25;;;;;;;4.32;1.92;;;;;;;;;;8302110;28;20041;-90
2022/08/31 07:14:28;;;;;;;1.90;1.42;;;;;;;;;;8301996;28;20386;-90
2022/08/31 07:18:31;;;;;;;4.25;2.10;;;;;;;;;;8301816;28;20080;-90
2022/08/31 07:22:35;;;;;;;2.25;1.40;;;;;;;;;;8301596;28;20081;-91
2022/08/31 07:26:41;;;;;;;2.92;1.45;;;;;;;;;;8301703;28;20050;-90
2022/08/31 07:30:48;;;;;;;2.42;1.40;;;;;;;;;;8301484;28;20050;-90
2022/08/31 07:34:51;;;;;;;2.95;1.27;;;;;;;;;;8301374;28;20448;-91
2022/08/31 07:43:15;;;;;;;4.40;1.05;;;;;;;;;;8301173;28;20046;-91
2022/08/31 07:47:19;;;;;;;1.10;1.00;;;;;;;;;;8301003;28;20132;-90
2022/08/31 07:51:23;;;;;;;3.28;1.20;;;;;;;;;;8300762;28;20045;-90
2022/08/31 07:55:28;;;;;;;2.30;1.00;;;;;;;;;;8300584;28;20050;-90
2022/08/31 07:59:33;;;;;;;1.40;1.20;;;;;;;;;;8300111;28;20088;-90
2022/08/31 08:03:42;;;;;;;1.65;1.00;;;;;;;;;;8300368;28;20184;-90
2022/08/31 08:07:45;;;;;;;2.30;1.10;;;;;;;;;;8300355;28;20042;-90
2022/08/31 08:11:56;;;;;;;2.17;1.27;;;;;;;;;;8300226;28;20056;-90
2022/08/31 08:15:59;;;;;;;3.28;1.15;;;;;;;;;;8300023;28;20049;-91
2022/08/31 08:20:01;;;;;;;2.70;0.98;;;;;;;;;;8299789;28;20054;-91
2022/08/31 08:24:04;;;;;;;3.03;1.05;;;;;;;;;;8299731;28;20049;-90
2022/08/31 08:28:08;;;;;;;2.47;1.17;;;;;;;;;;8299650;28;20053;-90
2022/08/31 08:32:11;;;;;;;2.80;1.17;;;;;;;;;;8299614;28;20073;-90
2022/08/31 08:36:16;;;;;;;1.50;1.10;;;;;;;;;;8299283;28;20053;-90
2022/08/31 08:40:30;;;;;;;3.38;1.20;;;;;;;;;;8299346;28;20128;-91
2022/08/31 08:44:36;;;;;;;1.35;1.00;;;;;;;;;;8299287;28;20485;-90
2022/08/31 08:48:40;;;;;;;5.72;1.10;;;;;;;;;;8299049;28;20046;-90
2022/08/31 08:52:46;;;;;;;3.35;0.90;;;;;;;;;;8298894;28;20413;-91
2022/08/31 08:56:48;;;;;;;3.88;1.27;;;;;;;;;;8298615;28;20137;-91
2022/08/31 09:00:55;;;;;;;1.63;0.98;;;;;;;;;;8298679;28;20099;-90
2022/08/31 09:05:15;;;;;;;2.13;1.17;;;;;;;;;;8298633;28;20088;-91
2022/08/31 09:09:36;;;;;;;1.27;0.93;;;;;;;;;;8297718;28;20061;-91
2022/08/31 09:13:48;;;;;;;2.72;1.10;;;;;;;;;;8298272;28;20053;-91
2022/08/31 09:18:02;;;;;;;1.50;1.20;;;;;;;;;;8298315;28;20052;-91
2022/08/31 09:22:04;;;;;;;2.95;1.10;;;;;;;;;;8297970;28;20053;-91
2022/08/31 09:26:08;;;;;;;1.00;0.90;;;;;;;;;;8298213;28;20037;-91
2022/08/31 09:30:12;;;;;;;3.63;0.95;;;;;;;;;;8297983;28;20056;-91
2022/08/31 09:34:29;;;;;;;2.05;1.05;;;;;;;;;;8297736;28;20042;-92
2022/08/31 09:38:36;;;;;;;2.30;1.10;;;;;;;;;;8297913;28;20052;-91
2022/08/31 09:42:39;;;;;;;1.95;1.08;;;;;;;;;;8297558;28;20041;-91
2022/08/31 09:46:47;;;;;;;3.65;1.20;;;;;;;;;;8297461;28;20493;-91
2022/08/31 09:51:01;;;;;;;1.25;0.90;;;;;;;;;;8297445;28;20052;-91
2022/08/31 09:55:20;;;;;;;2.28;0.90;;;;;;;;;;8297208;28;20080;-91
2022/08/31 09:59:36;;;;;;;2.33;1.42;;;;;;;;;;8297236;28;20046;-91
2022/08/31 10:03:43;;;;;;;1.40;1.00;;;;;;;;;;8297276;28;20042;-90
2022/08/31 10:07:55;;;;;;;1.90;1.10;;;;;;;;;;8297177;28;20046;-90
2022/08/31 10:12:03;;;;;;;0.90;0.80;;;;;;;;;;8297132;28;20413;-90
2022/08/31 10:16:13;;;;;;;1.80;0.90;;;;;;;;;;8296921;28;20046;-91
2022/08/31 10:20:20;;;;;;;3.15;1.00;;;;;;;;;;8298458;28;20064;-90
2022/08/31 10:24:37;;;;;;;2.83;1.00;;;;;;;;;;8303576;28;20516;-90
2022/08/31 10:28:48;;;;;;;2.25;1.02;;;;;;;;;;8303389;28;20042;-90
2022/08/31 10:32:57;;;;;;;4.00;1.27;;;;;;;;;;8303380;28;20042;-90
2022/08/31 10:37:05;;;;;;;2.88;1.27;;;;;;;;;;8303025;28;20050;-90
2022/08/31 10:41:18;;;;;;;0.88;0.85;;;;;;;;;;8303146;28;20045;-90
2022/08/31 10:45:24;;;;;;;1.63;1.00;;;;;;;;;;8302948;28;20386;-90
2022/08/31 10:49:27;;;;;;;1.10;1.00;;;;;;;;;;8302837;28;20045;-90
2022/08/31 10:53:40;;;;;;;1.42;0.98;;;;;;;;;;8302643;28;20069;-90
2022/08/31 10:57:50;;;;;;;3.30;1.52;;;;;;;;;;8302565;28;20045;-90
2022/08/31 11:02:04;;;;;;;2.58;1.02;;;;;;;;;;8302514;28;20058;-90
2022/08/31 11:06:16;;;;;;;2.13;1.00;;;;;;;;;;8302296;28;20136;-90
2022/08/31 11:10:26;;;;;;;2.33;1.00;;;;;;;;;;8302122;28;20073;-90
2022/08/31 11:14:57;;;;;;;1.50;0.90;;;;;;;;;;8302029;28;20416;-90
2022/08/31 11:19:36;;;;;;;2.13;0.97;;;;;;;;;;8299988;28;20054;-90
2022/08/31 11:23:55;;;;;;;1.95;1.10;;;;;;;;;;8301736;28;20096;-89
2022/08/31 11:28:05;;;;;;;2.35;1.00;;;;;;;;;;8301625;28;20445;-90
2022/08/31 11:32:17;;;;;;;3.23;1.07;;;;;;;;;;8300703;28;20073;-90
2022/08/31 11:36:48;;;;;;;3.70;1.00;;;;;;;;;;8301288;28;20516;-90
2022/08/31 11:41:10;;;;;;;6.05;1.10;;;;;;;;;;8301259;28;20077;-90
2022/08/31 11:45:26;;;;;;;1.38;1.00;;;;;;;;;;8301193;28;20104;-90
2022/08/31 11:49:53;;;;;;;2.72;1.05;;;;;;;;;;8300980;28;20045;-91
2022/08/31 11:53:55;;;;;;;1.95;0.88;;;;;;;;;;8296940;28;20511;-90
2022/08/31 11:58:24;;;;;;;2.33;1.00;;;;;;;;;;8300775;28;20420;-90
2022/08/31 12:02:44;;;;;;;1.05;0.80;;;;;;;;;;8298215;28;20061;-90
2022/08/31 12:07:11;;;;;;;1.27;1.00;;;;;;;;;;8300756;28;20061;-90
2022/08/31 12:11:22;;;;;;;1.88;1.10;;;;;;;;;;8300310;28;20049;-89
2022/08/31 12:15:38;;;;;;;5.22;1.40;;;;;;;;;;8300002;28;20045;-89
2022/08/31 12:20:00;;;;;;;1.45;0.77;;;;;;;;;;8299813;28;20635;-90
2022/08/31 12:24:28;;;;;;;3.35;1.15;;;;;;;;;;8299903;28;20056;-91
2022/08/31 12:28:44;;;;;;;0.93;0.93;;;;;;;;;;8299799;28;20577;-90
2022/08/31 12:32:56;;;;;;;1.40;0.93;;;;;;;;;;8282226;28;20060;-90
2022/08/31 12:36:59;;;;;;;3.28;1.20;;;;;;;;;;8281872;28;20497;-90
2022/08/31 12:41:04;;;;;;;1.77;1.05;;;;;;;;;;8299416;28;20081;-90
2022/08/31 12:45:10;;;;;;;0.93;0.70;;;;;;;;;;8299193;28;20531;-90
2022/08/31 12:49:45;;;;;;;2.85;1.30;;;;;;;;;;8299103;28;20054;-89
2022/08/31 12:54:10;;;;;;;2.65;1.20;;;;;;;;;;8299045;28;20046;-89
2022/08/31 12:58:38;;;;;;;1.48;0.93;;;;;;;;;;8298782;28;20460;-90
2022/08/31 13:02:43;;;;;;;1.90;1.15;;;;;;;;;;8298871;28;20045;-90
2022/08/31 13:06:48;;;;;;;2.75;1.27;;;;;;;;;;8298631;28;20568;-90
2022/08/31 13:10:51;;;;;;;1.25;1.13;;;;;;;;;;8298836;28;20072;-91
2022/08/31 13:14:55;;;;;;;2.20;1.15;;;;;;;;;;8298745;28;20050;-91
2022/08/31 13:19:01;;;;;;;2.65;1.25;;;;;;;;;;8298176;28;20129;-90
2022/08/31 13:23:05;;;;;;;1.30;1.08;;;;;;;;;;8298127;28;20052;-90
2022/08/31 13:27:12;;;;;;;6.18;1.45;;;;;;;;;;8298039;28;20056;-90
2022/08/31 13:31:20;;;;;;;3.60;1.40;;;;;;;;;;8297825;28;20136;-91
2022/08/31 13:35:35;;;;;;;5.65;1.50;;;;;;;;;;8297811;28;20482;-90
2022/08/31 13:39:43;;;;;;;1.92;1.20;;;;;;;;;;8297704;28;20053;-90
2022/08/31 13:43:57;;;;;;;3.15;1.50;;;;;;;;;;8297646;28;20497;-91
2022/08/31 13:48:09;;;;;;;1.58;1.13;;;;;;;;;;8297480;28;20092;-90
2022/08/31 13:52:17;;;;;;;1.92;1.30;;;;;;;;;;8297555;28;20077;-88
2022/08/31 14:00:45;;;;;;;2.38;1.50;;;;;;;;;;8297384;28;20192;-90
2022/08/31 14:05:00;;;;;;;2.45;1.58;;;;;;;;;;8297192;28;20064;-90
2022/08/31 14:09:13;;;;;;;4.10;1.33;;;;;;;;;;8297181;28;20073;-90
2022/08/31 14:13:19;;;;;;;2.28;1.20;;;;;;;;;;8297125;28;20057;-90
2022/08/31 14:17:26;;;;;;;3.67;1.67;;;;;;;;;;8296778;28;20073;-90
2022/08/31 14:21:39;;;;;;;2.95;1.50;;;;;;;;;;8296593;28;20433;-90
2022/08/31 14:25:42;;;;;;;5.10;1.42;;;;;;;;;;8296839;28;20065;-91
2022/08/31 14:29:46;;;;;;;2.28;1.20;;;;;;;;;;8296721;28;20413;-90
2022/08/31 14:33:58;;;;;;;3.30;1.25;;;;;;;;;;8296687;28;20056;-91
2022/08/31 14:38:06;;;;;;;4.20;1.50;;;;;;;;;;8296624;28;20050;-89
2022/08/31 14:42:15;;;;;;;3.67;1.30;;;;;;;;;;8296641;28;20052;-91
2022/08/31 14:46:26;;;;;;;2.88;1.30;;;;;;;;;;8296568;28;20054;-90
2022/08/31 14:50:29;;;;;;;6.85;1.75;;;;;;;;;;8296502;28;20532;-90
2022/08/31 14:54:35;;;;;;;3.13;1.42;;;;;;;;;;8296413;28;20046;-91
2022/08/31 14:58:40;;;;;;;5.05;1.50;;;;;;;;;;8296321;28;20046;-90
2022/08/31 15:02:45;;;;;;;2.63;1.60;;;;;;;;;;8296300;28;20441;-89
2022/08/31 15:06:52;;;;;;;5.60;1.73;;;;;;;;;;8297333;28;20057;-90
2022/08/31 15:10:56;;;;;;;2.30;1.23;;;;;;;;;;8302644;28;20109;-90
2022/08/31 15:14:59;;;;;;;3.10;1.40;;;;;;;;;;8302753;28;20046;-94
2022/08/31 15:19:12;;;;;;;4.50;1.42;;;;;;;;;;8302122;28;20049;-91
2022/08/31 15:23:14;;;;;;;2.80;1.40;;;;;;;;;;8302379;28;20064;-90
2022/08/31 15:27:21;;;;;;;2.55;1.40;;;;;;;;;;8302099;28;20121;-90
2022/08/31 15:31:26;;;;;;;15.93;7.07;;;;;;;;;;8301756;28;20050;-90
2022/08/31 15:35:30;;;;;;;13.20;6.28;;;;;;;;;;8301694;28;20065;-89
2022/08/31 15:39:35;;;;;;;3.05;1.45;;;;;;;;;;8302010;28;20053;-92
2022/08/31 15:43:41;;;;;;;3.95;1.10;;;;;;;;;;8301583;28;20444;-90
2022/08/31 15:52:07;;;;;;;23.10;6.97;;;;;;;;;;8301301;28;20413;-90
2022/08/31 15:56:10;;;;;;;2.58;1.27;;;;;;;;;;8300845;28;20050;-89
2022/08/31 16:00:15;;;;;;;2.65;1.40;;;;;;;;;;8300861;28;20544;-90
2022/08/31 16:04:22;;;;;;;2.70;1.40;;;;;;;;;;8300844;28;20049;-90
2022/08/31 16:08:27;;;;;;;2.65;1.30;;;;;;;;;;8300753;28;20224;-90
2022/08/31 16:12:29;;;;;;;3.05;1.33;;;;;;;;;;8300578;28;20105;-90
2022/08/31 16:16:36;;;;;;;2.40;1.40;;;;;;;;;;8300209;28;20138;-90
2022/08/31 16:20:39;;;;;;;5.10;1.98;;;;;;;;;;8299763;28;20402;-90
2022/08/31 16:24:43;;;;;;;8.05;3.78;;;;;;;;;;8300390;28;20137;-90
2022/08/31 16:28:46;;;;;;;4.78;1.77;;;;;;;;;;8300361;28;20049;-91
2022/08/31 16:32:50;;;;;;;2.28;1.42;;;;;;;;;;8299756;28;20052;-90
2022/08/31 16:36:53;;;;;;;2.97;1.40;;;;;;;;;;8299736;28;20084;-90
2022/08/31 16:41:01;;;;;;;2.63;1.30;;;;;;;;;;8299760;28;20088;-90
2022/08/31 16:45:04;;;;;;;3.00;1.60;;;;;;;;;;8299615;28;20486;-90
2022/08/31 16:53:27;;;;;;;4.60;2.05;;;;;;;;;;8299216;28;20069;-90
2022/08/31 16:57:33;;;;;;;5.88;2.35;;;;;;;;;;8298991;28;20555;-90
2022/08/31 17:01:38;;;;;;;5.97;2.55;;;;;;;;;;8299198;28;20061;-90
2022/08/31 17:05:42;;;;;;;16.60;5.85;;;;;;;;;;8299479;28;20535;-90
2022/08/31 17:09:45;;;;;;;6.57;3.08;;;;;;;;;;8298799;28;20046;-90
2022/08/31 17:13:48;;;;;;;6.38;3.20;;;;;;;;;;8298498;28;20042;-90
2022/08/31 17:17:51;;;;;;;7.13;3.05;;;;;;;;;;8298211;28;20049;-91
2022/08/31 17:21:55;;;;;;;5.95;3.08;;;;;;;;;;8297931;28;20057;-90
2022/08/31 17:25:58;;;;;;;17.50;6.20;;;;;;;;;;8298117;28;20061;-89
2022/08/31 17:30:04;;;;;;;16.75;5.47;;;;;;;;;;8297356;28;20069;-89
2022/08/31 17:34:07;;;;;;;25.95;8.60;;;;;;;;;;8298002;28;20042;-89
2022/08/31 17:38:11;;;;;;;21.70;7.20;;;;;;;;;;8297616;28;20097;-90
2022/08/31 17:42:15;;;;;;;16.27;6.47;;;;;;;;;;8297629;28;20477;-90
2022/08/31 17:46:17;;;;;;;38.78;15.93;;;;;;;;;;8297597;28;20508;-89
2022/08/31 17:50:20;;;;;;;13.82;5.85;;;;;;;;;;8297505;28;20177;-90
2022/08/31 17:54:28;;;;;;;10.07;4.00;;;;;;;;;;8297390;28;20050;-89
2022/08/31 17:58:31;;;;;;;8.02;3.10;;;;;;;;;;8297376;28;20050;-89
2022/08/31 18:02:34;;;;;;;4.63;3.08;;;;;;;;;;8297345;28;20496;-89
2022/08/31 18:06:36;;;;;;;12.73;5.40;;;;;;;;;;8297403;28;20532;-89
2022/08/31 18:10:41;;;;;;;6.68;3.20;;;;;;;;;;8297203;28;20157;-89
2022/08/31 18:14:44;;;;;;;6.75;3.38;;;;;;;;;;8297012;28;20152;-91
2022/08/31 18:18:49;;;;;;;5.75;3.25;;;;;;;;;;8297062;28;20077;-90
2022/08/31 18:22:52;;;;;;;6.40;2.90;;;;;;;;;;8297472;28;20580;-89
2022/08/31 18:26:57;;;;;;;4.53;2.63;;;;;;;;;;8297027;28;20061;-89
2022/08/31 18:31:06;;;;;;;7.25;2.65;;;;;;;;;;8296859;28;20073;-90
2022/08/31 18:35:12;;;;;;;5.03;2.90;;;;;;;;;;8296778;28;20417;-90
2022/08/31 18:39:20;;;;;;;7.60;3.30;;;;;;;;;;8296566;28;20045;-89
2022/08/31 18:47:45;;;;;;;7.28;3.28;;;;;;;;;;8302907;28;20046;-90
2022/08/31 18:51:49;;;;;;;6.65;3.60;;;;;;;;;;8302858;28;20045;-89
2022/08/31 18:55:51;;;;;;;4.93;2.50;;;;;;;;;;8302569;28;20104;-89
2022/08/31 18:59:55;;;;;;;7.65;4.47;;;;;;;;;;8302596;28;20050;-89
2022/08/31 19:03:58;;;;;;;6.88;3.20;;;;;;;;;;8302490;28;20049;-89
2022/08/31 19:08:01;;;;;;;6.22;3.25;;;;;;;;;;8302249;28;20042;-89
2022/08/31 19:12:05;;;;;;;4.95;2.92;;;;;;;;;;8302150;28;20496;-89
2022/08/31 19:16:16;;;;;;;12.93;4.80;;;;;;;;;;8302604;28;20053;-89
2022/08/31 19:20:18;;;;;;;18.35;8.77;;;;;;;;;;8303224;28;20069;-89
2022/08/31 19:24:21;;;;;;;10.93;6.22;;;;;;;;;;8289569;28;20038;-92
2022/08/31 19:28:23;;;;;;;4.45;2.97;;;;;;;;;;8286858;28;20056;-91
2022/08/31 19:32:28;;;;;;;6.10;4.00;;;;;;;;;;8275410;28;20197;-90
2022/08/31 19:36:32;;;;;;;5.10;3.70;;;;;;;;;;8296316;28;20460;-90
2022/08/31 19:40:38;;;;;;;4.78;2.88;;;;;;;;;;8301366;28;20141;-89
2022/08/31 19:44:45;;;;;;;4.53;2.80;;;;;;;;;;8301266;28;20128;-90
2022/08/31 19:48:50;;;;;;;4.38;2.42;;;;;;;;;;8301057;28;20042;-90
2022/08/31 19:52:52;;;;;;;7.30;1.98;;;;;;;;;;8300022;28;20165;-90
2022/08/31 19:56:56;;;;;;;7.28;3.60;;;;;;;;;;8300710;28;20511;-89
2022/08/31 20:00:59;;;;;;;7.40;4.68;;;;;;;;;;8300644;28;20045;-90
2022/08/31 20:05:05;;;;;;;10.20;4.78;;;;;;;;;;8300557;28;20060;-89
2022/08/31 20:09:09;;;;;;;10.27;5.20;;;;;;;;;;8300479;28;20064;-89
2022/08/31 20:13:13;;;;;;;5.80;3.28;;;;;;;;;;8300310;28;20137;-89
2022/08/31 20:17:15;;;;;;;5.22;3.20;;;;;;;;;;8300131;28;20056;-89
2022/08/31 20:21:22;;;;;;;7.32;2.85;;;;;;;;;;8299955;28;20085;-90
2022/08/31 20:25:25;;;;;;;6.10;3.40;;;;;;;;;;8300080;28;20497;-89
2022/08/31 20:29:29;;;;;;;7.18;3.50;;;;;;;;;;8299716;28;20050;-89
2022/08/31 20:33:32;;;;;;;5.88;3.55;;;;;;;;;;8299636;28;20049;-90
2022/08/31 20:37:36;;;;;;;6.45;3.67;;;;;;;;;;8299422;28;20108;-90
2022/08/31 20:41:40;;;;;;;8.43;5.28;;;;;;;;;;8299341;28;20054;-90
2022/08/31 20:45:42;;;;;;;6.70;4.22;;;;;;;;;;8299307;28;20390;-92
2022/08/31 20:49:46;;;;;;;7.85;3.75;;;;;;;;;;8299136;28;20038;-90
2022/08/31 20:53:50;;;;;;;6.68;4.05;;;;;;;;;;8299042;28;20042;-90
2022/08/31 20:57:53;;;;;;;7.90;3.95;;;;;;;;;;8298864;28;20387;-90
2022/08/31 21:01:58;;;;;;;5.85;3.42;;;;;;;;;;8298895;28;20052;-90
2022/08/31 21:06:02;;;;;;;6.53;3.60;;;;;;;;;;8297661;28;20046;-89
2022/08/31 21:10:08;;;;;;;6.03;3.63;;;;;;;;;;8270296;28;20414;-90
2022/08/31 21:14:11;;;;;;;7.22;3.47;;;;;;;;;;8295436;28;20045;-89
2022/08/31 21:18:16;;;;;;;5.55;3.50;;;;;;;;;;8298284;28;20460;-90
2022/08/31 21:22:19;;;;;;;5.95;3.05;;;;;;;;;;8298024;28;20062;-89
2022/08/31 21:26:26;;;;;;;7.32;3.10;;;;;;;;;;8297102;28;20508;-90
2022/08/31 21:30:29;;;;;;;5.63;3.65;;;;;;;;;;8266043;28;20054;-89
2022/08/31 21:34:32;;;;;;;10.32;3.40;;;;;;;;;;8265473;28;20086;-89
2022/08/31 21:38:35;;;;;;;6.55;3.42;;;;;;;;;;8265251;28;20086;-90
2022/08/31 21:42:40;;;;;;;6.45;3.28;;;;;;;;;;8265272;28;20138;-90
2022/08/31 21:46:43;;;;;;;5.80;2.97;;;;;;;;;;8285172;28;20050;-90
2022/08/31 21:50:45;;;;;;;6.45;2.58;;;;;;;;;;8297490;28;20408;-90
2022/08/31 21:54:48;;;;;;;5.45;2.65;;;;;;;;;;8297407;28;20072;-90
2022/08/31 21:58:52;;;;;;;5.50;2.47;;;;;;;;;;8297249;28;20046;-91
2022/08/31 22:02:54;;;;;;;4.25;2.30;;;;;;;;;;8297202;28;20405;-90
2022/08/31 22:06:58;;;;;;;4.25;2.55;;;;;;;;;;8297168;28;20532;-89
2022/08/31 22:11:00;;;;;;;5.82;3.03;;;;;;;;;;8297126;28;20042;-90
2022/08/31 22:15:09;;;;;;;6.00;2.53;;;;;;;;;;8296934;28;20046;-90
2022/08/31 22:19:12;;;;;;;7.30;2.75;;;;;;;;;;8296683;28;20469;-90
2022/08/31 22:23:15;;;;;;;3.35;2.20;;;;;;;;;;8296944;28;20110;-90
2022/08/31 22:27:17;;;;;;;6.63;2.58;;;;;;;;;;8296884;28;20053;-90
2022/08/31 22:31:23;;;;;;;4.15;2.50;;;;;;;;;;8296757;28;20052;-90
2022/08/31 22:35:26;;;;;;;5.03;2.25;;;;;;;;;;8296729;28;20046;-90
2022/08/31 22:39:29;;;;;;;4.75;2.50;;;;;;;;;;8296480;28;20408;-90
2022/08/31 22:43:32;;;;;;;4.97;2.72;;;;;;;;;;8296674;28;20133;-90
2022/08/31 22:47:37;;;;;;;4.75;2.72;;;;;;;;;;8296467;28;20046;-90
2022/08/31 22:51:40;;;;;;;10.02;2.50;;;;;;;;;;8296476;28;20060;-90
2022/08/31 22:55:43;;;;;;;4.65;2.28;;;;;;;;;;8296372;28;20046;-90
2022/08/31 22:59:46;;;;;;;8.15;2.42;;;;;;;;;;8290777;28;20053;-92
2022/08/31 23:03:50;;;;;;;4.50;2.60;;;;;;;;;;8263874;28;20060;-90
2022/08/31 23:07:53;;;;;;;5.43;2.53;;;;;;;;;;8263963;28;20050;-90
2022/08/31 23:11:58;;;;;;;4.22;2.25;;;;;;;;;;8286255;28;20129;-90
2022/08/31 23:16:01;;;;;;;5.47;2.92;;;;;;;;;;8296087;28;20046;-90
2022/08/31 23:20:06;;;;;;;2.72;2.20;;;;;;;;;;8288955;28;20540;-90
2022/08/31 23:24:08;;;;;;;5.85;2.20;;;;;;;;;;8289867;28;20062;-91
2022/08/31 23:28:11;;;;;;;4.40;2.20;;;;;;;;;;8297125;28;20053;-90
2022/08/31 23:32:16;;;;;;;4.03;2.40;;;;;;;;;;8301682;28;20100;-90
2022/08/31 23:36:24;;;;;;;5.47;2.60;;;;;;;;;;8301620;28;20046;-90
2022/08/31 23:40:29;;;;;;;5.95;2.30;;;;;;;;;;8301278;28;20050;-91
2022/08/31 23:44:34;;;;;;;3.60;2.40;;;;;;;;;;8302699;28;20052;-90
2022/08/31 23:48:37;;;;;;;6.50;3.00;;;;;;;;;;8301211;28;20100;-90
2022/08/31 23:52:42;;;;;;;6.03;2.40;;;;;;;;;;8301011;28;20103;-90
2022/08/31 23:56:47;;;;;;;3.50;2.28;;;;;;;;;;8301765;28;20101;-89
